Airfield :
LOGIN :

Register | Disclaimer

   EN    FR    IT 

 










Legend :    VFR   Marginal VFR   IFR   Intensive IFR   Very Intensive IFR
Visi :
Ceiling :
>= 8 km
>= 3000ft
5 to 8 km
1000 to 3000 ft
1500m to 5 km
500 to 1000 ft
800 to 1500m
200 to 500 ft
< 800m
< 200 ft
Symbols :   Thunderstorms  Fog  Heavy snow  Heavy precipitations  Wind > 20 kt
SIGMETs :     Misc.  Thunderstorms  Icing  Turbulence  Mountain Waves  Volcanic Ashes






- Airport Elevation : 297 ft
- IATA code : UIP


LFRQ - Quimper Pluguffan

CURRENT METAR :
  • 241100Z AUTO 28014KT 9999 FEW015/// BKN074/// BKN100/// ///TCU 07/04 Q1002 TEMPO 30020G40KT 3000 SHRA BKN008 BKN015CB

EXPIRED METARs :
  • 241030Z AUTO 29010KT 9999 FEW035/// SCT062/// OVC110/// ///TCU 07/04 Q1002 TEMPO 30020G40KT 3000 SHRA BKN008 BKN015CB
  • 241000Z AUTO 31020G33KT 280V350 9999 -RA FEW018/// BKN031/// BKN060/// ///CB 05/02 Q1002 TEMPO 3000 SHRA BKN008 BKN015CB
  • 240930Z AUTO 29010KT 9999 FEW021/// SCT048/// BKN110/// ///TCU 06/03 Q1001 TEMPO 30020G40KT 3000 SHRA BKN008 BKN015CB
  • 240900Z AUTO 29005KT 250V320 9999 FEW026/// BKN042/// BKN054/// ///CB 07/05 Q1002 TEMPO 30020G40KT 3000 SHRA BKN008 BKN015CB
  • 240830Z AUTO 30008KT 9999 FEW030 SCT039 BKN072 06/04 Q1001 TEMPO 30020G40KT 3000 SHRA BKN008 BKN015CB

TAF TAF LFRQ
Valid from the 24 at 06:00 until the 25 at 06:00 UTC


240500Z 2406/2506 30012KT 9999 SCT020 BKN035
TEMPO 2406/2424 30020G40KT 3000 SHRA BKN008 BKN015CB
BECMG 2504/2506 36010KT



MET'MAP, your aeronautical weather chart ! - Copyright ORBIFLY December 2007 - Disclaimer

ORBIFLY MET'MAP TEAM :

Programming & Development : Alexandra Zaïnal
Concept & original design : Baudouin d'Aumeries
Assistance for programming : Marc-Olivier Méhu
Technical & hardware support : Manuel Goepfert

Contact : metmap@orbifly.com




SOURCES & CREDITS :

   NOAA